sensor_id;sensor_type;location;lat;lon;timestamp;P1;durP1;ratioP1;P2;durP2;ratioP2
20894;SDS011;10607;42.066;24.742;2023-04-04T00:01:03;15.40;;;13.67;;
20894;SDS011;10607;42.066;24.742;2023-04-04T00:03:28;15.70;;;13.80;;
20894;SDS011;10607;42.066;24.742;2023-04-04T00:05:54;18.17;;;14.93;;
20894;SDS011;10607;42.066;24.742;2023-04-04T00:08:20;16.83;;;15.00;;
20894;SDS011;10607;42.066;24.742;2023-04-04T00:10:45;16.80;;;14.83;;
20894;SDS011;10607;42.066;24.742;2023-04-04T00:13:11;23.40;;;17.57;;
20894;SDS011;10607;42.066;24.742;2023-04-04T00:15:36;18.73;;;15.60;;
20894;SDS011;10607;42.066;24.742;2023-04-04T00:18:02;23.27;;;17.50;;
20894;SDS011;10607;42.066;24.742;2023-04-04T00:20:28;21.50;;;17.57;;
20894;SDS011;10607;42.066;24.742;2023-04-04T00:22:53;24.90;;;17.80;;
20894;SDS011;10607;42.066;24.742;2023-04-04T00:25:19;24.40;;;17.87;;
20894;SDS011;10607;42.066;24.742;2023-04-04T00:27:44;24.00;;;19.10;;
20894;SDS011;10607;42.066;24.742;2023-04-04T00:30:10;26.47;;;18.50;;
20894;SDS011;10607;42.066;24.742;2023-04-04T00:32:36;25.77;;;20.43;;
20894;SDS011;10607;42.066;24.742;2023-04-04T00:35:01;25.53;;;19.27;;
20894;SDS011;10607;42.066;24.742;2023-04-04T00:37:27;29.23;;;18.77;;
20894;SDS011;10607;42.066;24.742;2023-04-04T00:39:52;29.93;;;20.43;;
20894;SDS011;10607;42.066;24.742;2023-04-04T00:42:17;32.10;;;20.70;;
20894;SDS011;10607;42.066;24.742;2023-04-04T00:44:42;27.57;;;20.83;;
20894;SDS011;10607;42.066;24.742;2023-04-04T00:47:08;29.80;;;22.20;;
20894;SDS011;10607;42.066;24.742;2023-04-04T00:49:33;30.17;;;22.90;;
20894;SDS011;10607;42.066;24.742;2023-04-04T00:51:58;30.57;;;22.43;;
20894;SDS011;10607;42.066;24.742;2023-04-04T00:54:24;30.10;;;23.47;;
20894;SDS011;10607;42.066;24.742;2023-04-04T00:56:49;32.13;;;24.40;;
20894;SDS011;10607;42.066;24.742;2023-04-04T00:59:19;39.43;;;24.53;;
20894;SDS011;10607;42.066;24.742;2023-04-04T01:01:45;42.20;;;25.47;;
20894;SDS011;10607;42.066;24.742;2023-04-04T01:04:11;56.87;;;26.37;;
20894;SDS011;10607;42.066;24.742;2023-04-04T01:06:37;66.40;;;25.73;;
20894;SDS011;10607;42.066;24.742;2023-04-04T01:09:03;65.13;;;27.63;;
20894;SDS011;10607;42.066;24.742;2023-04-04T01:11:28;89.10;;;28.63;;
20894;SDS011;10607;42.066;24.742;2023-04-04T01:13:53;62.83;;;28.60;;
20894;SDS011;10607;42.066;24.742;2023-04-04T01:16:19;60.87;;;28.17;;
20894;SDS011;10607;42.066;24.742;2023-04-04T01:18:46;61.53;;;27.93;;
20894;SDS011;10607;42.066;24.742;2023-04-04T01:21:12;42.83;;;27.63;;
20894;SDS011;10607;42.066;24.742;2023-04-04T01:26:06;37.87;;;26.27;;
20894;SDS011;10607;42.066;24.742;2023-04-04T01:28:32;39.97;;;27.33;;
20894;SDS011;10607;42.066;24.742;2023-04-04T01:30:58;39.63;;;27.43;;
20894;SDS011;10607;42.066;24.742;2023-04-04T01:33:26;43.00;;;25.67;;
20894;SDS011;10607;42.066;24.742;2023-04-04T01:35:55;36.57;;;27.27;;
20894;SDS011;10607;42.066;24.742;2023-04-04T01:39:05;41.53;;;27.13;;
20894;SDS011;10607;42.066;24.742;2023-04-04T01:41:11;39.03;;;27.27;;
20894;SDS011;10607;42.066;24.742;2023-04-04T01:43:37;36.30;;;26.27;;
20894;SDS011;10607;42.066;24.742;2023-04-04T01:46:02;31.13;;;24.60;;
20894;SDS011;10607;42.066;24.742;2023-04-04T01:48:27;31.77;;;25.27;;
20894;SDS011;10607;42.066;24.742;2023-04-04T01:50:52;35.77;;;25.77;;
20894;SDS011;10607;42.066;24.742;2023-04-04T01:53:18;39.37;;;26.33;;
20894;SDS011;10607;42.066;24.742;2023-04-04T01:55:43;37.63;;;27.00;;
20894;SDS011;10607;42.066;24.742;2023-04-04T01:58:09;35.17;;;27.57;;
20894;SDS011;10607;42.066;24.742;2023-04-04T02:00:34;41.80;;;28.30;;
20894;SDS011;10607;42.066;24.742;2023-04-04T02:03:00;38.70;;;30.07;;
20894;SDS011;10607;42.066;24.742;2023-04-04T02:05:26;45.50;;;30.47;;
20894;SDS011;10607;42.066;24.742;2023-04-04T02:07:52;40.67;;;30.67;;
20894;SDS011;10607;42.066;24.742;2023-04-04T02:10:17;42.83;;;30.23;;
20894;SDS011;10607;42.066;24.742;2023-04-04T02:12:42;53.10;;;31.97;;
20894;SDS011;10607;42.066;24.742;2023-04-04T02:15:08;40.77;;;29.27;;
20894;SDS011;10607;42.066;24.742;2023-04-04T02:17:33;40.53;;;27.80;;
20894;SDS011;10607;42.066;24.742;2023-04-04T02:19:59;42.53;;;30.67;;
20894;SDS011;10607;42.066;24.742;2023-04-04T02:22:25;41.17;;;29.73;;
20894;SDS011;10607;42.066;24.742;2023-04-04T02:24:50;43.63;;;31.17;;
20894;SDS011;10607;42.066;24.742;2023-04-04T02:27:17;44.67;;;32.23;;
20894;SDS011;10607;42.066;24.742;2023-04-04T02:29:43;48.03;;;32.70;;
20894;SDS011;10607;42.066;24.742;2023-04-04T02:32:08;51.30;;;33.53;;
20894;SDS011;10607;42.066;24.742;2023-04-04T02:34:33;47.57;;;32.93;;
20894;SDS011;10607;42.066;24.742;2023-04-04T02:36:59;41.57;;;31.27;;
20894;SDS011;10607;42.066;24.742;2023-04-04T02:39:24;46.30;;;32.50;;
20894;SDS011;10607;42.066;24.742;2023-04-04T02:41:49;52.67;;;32.47;;
20894;SDS011;10607;42.066;24.742;2023-04-04T02:44:15;46.03;;;32.43;;
20894;SDS011;10607;42.066;24.742;2023-04-04T02:46:40;47.13;;;31.63;;
20894;SDS011;10607;42.066;24.742;2023-04-04T02:49:06;46.17;;;31.43;;
20894;SDS011;10607;42.066;24.742;2023-04-04T02:51:31;51.23;;;31.47;;
20894;SDS011;10607;42.066;24.742;2023-04-04T02:53:57;53.13;;;33.57;;
20894;SDS011;10607;42.066;24.742;2023-04-04T02:56:23;48.80;;;34.00;;
20894;SDS011;10607;42.066;24.742;2023-04-04T02:58:48;50.03;;;33.90;;
20894;SDS011;10607;42.066;24.742;2023-04-04T03:01:13;52.13;;;36.50;;
20894;SDS011;10607;42.066;24.742;2023-04-04T03:03:38;53.27;;;36.23;;
20894;SDS011;10607;42.066;24.742;2023-04-04T03:06:04;56.80;;;37.83;;
20894;SDS011;10607;42.066;24.742;2023-04-04T03:08:29;58.40;;;37.00;;
20894;SDS011;10607;42.066;24.742;2023-04-04T03:10:54;56.97;;;36.73;;
20894;SDS011;10607;42.066;24.742;2023-04-04T03:13:20;57.20;;;36.40;;
20894;SDS011;10607;42.066;24.742;2023-04-04T03:15:45;60.83;;;37.20;;
20894;SDS011;10607;42.066;24.742;2023-04-04T03:18:11;60.87;;;36.53;;
20894;SDS011;10607;42.066;24.742;2023-04-04T03:20:36;53.93;;;35.83;;
20894;SDS011;10607;42.066;24.742;2023-04-04T03:23:01;58.73;;;35.10;;
20894;SDS011;10607;42.066;24.742;2023-04-04T03:25:27;58.67;;;35.20;;
20894;SDS011;10607;42.066;24.742;2023-04-04T03:27:52;57.73;;;33.90;;
20894;SDS011;10607;42.066;24.742;2023-04-04T03:30:17;54.87;;;33.07;;
20894;SDS011;10607;42.066;24.742;2023-04-04T03:32:43;50.40;;;32.33;;
20894;SDS011;10607;42.066;24.742;2023-04-04T03:35:08;57.03;;;32.77;;
20894;SDS011;10607;42.066;24.742;2023-04-04T03:37:34;55.53;;;32.20;;
20894;SDS011;10607;42.066;24.742;2023-04-04T03:39:59;50.27;;;31.17;;
20894;SDS011;10607;42.066;24.742;2023-04-04T03:42:25;48.77;;;32.00;;
20894;SDS011;10607;42.066;24.742;2023-04-04T03:44:53;54.07;;;32.17;;
20894;SDS011;10607;42.066;24.742;2023-04-04T03:47:19;55.03;;;32.60;;
20894;SDS011;10607;42.066;24.742;2023-04-04T03:49:44;51.87;;;31.07;;
20894;SDS011;10607;42.066;24.742;2023-04-04T03:52:10;52.43;;;33.17;;
20894;SDS011;10607;42.066;24.742;2023-04-04T03:54:35;54.73;;;33.40;;
20894;SDS011;10607;42.066;24.742;2023-04-04T03:57:00;48.23;;;32.47;;
20894;SDS011;10607;42.066;24.742;2023-04-04T03:59:26;50.27;;;32.80;;
20894;SDS011;10607;42.066;24.742;2023-04-04T04:01:51;51.70;;;33.23;;
20894;SDS011;10607;42.066;24.742;2023-04-04T04:04:16;50.90;;;32.80;;
20894;SDS011;10607;42.066;24.742;2023-04-04T04:06:42;46.67;;;29.57;;
20894;SDS011;10607;42.066;24.742;2023-04-04T04:09:08;37.80;;;26.83;;
20894;SDS011;10607;42.066;24.742;2023-04-04T04:11:33;39.37;;;26.93;;
20894;SDS011;10607;42.066;24.742;2023-04-04T04:13:58;37.57;;;26.90;;
20894;SDS011;10607;42.066;24.742;2023-04-04T04:16:25;32.93;;;25.47;;
20894;SDS011;10607;42.066;24.742;2023-04-04T04:18:50;42.30;;;28.03;;
20894;SDS011;10607;42.066;24.742;2023-04-04T04:21:15;47.07;;;26.07;;
20894;SDS011;10607;42.066;24.742;2023-04-04T04:23:41;44.87;;;27.67;;
20894;SDS011;10607;42.066;24.742;2023-04-04T04:26:06;70.57;;;32.70;;
20894;SDS011;10607;42.066;24.742;2023-04-04T04:28:31;80.73;;;37.43;;
20894;SDS011;10607;42.066;24.742;2023-04-04T04:31:06;90.37;;;38.93;;
20894;SDS011;10607;42.066;24.742;2023-04-04T04:33:32;101.23;;;41.30;;
20894;SDS011;10607;42.066;24.742;2023-04-04T04:36:05;101.47;;;41.60;;
20894;SDS011;10607;42.066;24.742;2023-04-04T04:38:31;92.83;;;42.00;;
20894;SDS011;10607;42.066;24.742;2023-04-04T04:40:56;99.57;;;43.30;;
20894;SDS011;10607;42.066;24.742;2023-04-04T04:43:21;109.73;;;45.50;;
20894;SDS011;10607;42.066;24.742;2023-04-04T04:45:47;107.73;;;44.23;;
20894;SDS011;10607;42.066;24.742;2023-04-04T04:48:12;113.53;;;43.80;;
20894;SDS011;10607;42.066;24.742;2023-04-04T04:50:38;121.43;;;47.53;;
20894;SDS011;10607;42.066;24.742;2023-04-04T04:53:03;120.07;;;47.17;;
20894;SDS011;10607;42.066;24.742;2023-04-04T04:55:28;113.70;;;44.67;;
20894;SDS011;10607;42.066;24.742;2023-04-04T04:57:54;110.90;;;46.30;;
20894;SDS011;10607;42.066;24.742;2023-04-04T05:00:19;107.50;;;43.90;;
20894;SDS011;10607;42.066;24.742;2023-04-04T05:02:45;109.07;;;45.97;;
20894;SDS011;10607;42.066;24.742;2023-04-04T05:05:10;105.33;;;44.03;;
20894;SDS011;10607;42.066;24.742;2023-04-04T05:07:35;97.23;;;41.47;;
20894;SDS011;10607;42.066;24.742;2023-04-04T05:10:01;88.10;;;39.10;;
20894;SDS011;10607;42.066;24.742;2023-04-04T05:12:26;93.97;;;43.27;;
20894;SDS011;10607;42.066;24.742;2023-04-04T05:14:52;93.77;;;41.70;;
20894;SDS011;10607;42.066;24.742;2023-04-04T05:17:17;84.73;;;39.13;;
20894;SDS011;10607;42.066;24.742;2023-04-04T05:19:43;82.93;;;38.27;;
20894;SDS011;10607;42.066;24.742;2023-04-04T05:22:08;71.00;;;36.97;;
20894;SDS011;10607;42.066;24.742;2023-04-04T05:24:33;66.60;;;32.57;;
20894;SDS011;10607;42.066;24.742;2023-04-04T05:26:59;66.80;;;35.30;;
20894;SDS011;10607;42.066;24.742;2023-04-04T05:29:24;66.60;;;33.63;;
20894;SDS011;10607;42.066;24.742;2023-04-04T05:31:49;70.83;;;36.80;;
20894;SDS011;10607;42.066;24.742;2023-04-04T05:34:15;63.37;;;36.20;;
20894;SDS011;10607;42.066;24.742;2023-04-04T05:36:40;62.43;;;34.20;;
20894;SDS011;10607;42.066;24.742;2023-04-04T05:39:05;56.07;;;33.63;;
20894;SDS011;10607;42.066;24.742;2023-04-04T05:41:31;51.30;;;30.93;;
20894;SDS011;10607;42.066;24.742;2023-04-04T05:43:57;55.47;;;33.53;;
20894;SDS011;10607;42.066;24.742;2023-04-04T05:46:23;64.97;;;34.83;;
20894;SDS011;10607;42.066;24.742;2023-04-04T05:48:48;63.33;;;36.07;;
20894;SDS011;10607;42.066;24.742;2023-04-04T05:51:16;54.30;;;31.23;;
20894;SDS011;10607;42.066;24.742;2023-04-04T05:53:42;59.20;;;32.87;;
20894;SDS011;10607;42.066;24.742;2023-04-04T05:56:09;51.43;;;31.27;;
20894;SDS011;10607;42.066;24.742;2023-04-04T05:58:35;53.20;;;31.53;;
20894;SDS011;10607;42.066;24.742;2023-04-04T06:01:00;53.07;;;31.23;;
20894;SDS011;10607;42.066;24.742;2023-04-04T06:03:27;53.90;;;33.27;;
20894;SDS011;10607;42.066;24.742;2023-04-04T06:05:52;46.40;;;31.30;;
20894;SDS011;10607;42.066;24.742;2023-04-04T06:08:18;47.37;;;29.23;;
20894;SDS011;10607;42.066;24.742;2023-04-04T06:10:43;54.00;;;28.87;;
20894;SDS011;10607;42.066;24.742;2023-04-04T06:13:09;50.60;;;29.03;;
20894;SDS011;10607;42.066;24.742;2023-04-04T06:15:34;46.30;;;27.37;;
20894;SDS011;10607;42.066;24.742;2023-04-04T06:18:00;45.83;;;29.77;;
20894;SDS011;10607;42.066;24.742;2023-04-04T06:20:26;50.30;;;26.87;;
20894;SDS011;10607;42.066;24.742;2023-04-04T06:22:52;49.07;;;28.27;;
20894;SDS011;10607;42.066;24.742;2023-04-04T06:25:18;51.00;;;26.40;;
20894;SDS011;10607;42.066;24.742;2023-04-04T06:27:43;56.93;;;28.23;;
20894;SDS011;10607;42.066;24.742;2023-04-04T06:30:09;53.70;;;27.80;;
20894;SDS011;10607;42.066;24.742;2023-04-04T06:32:35;57.13;;;28.97;;
20894;SDS011;10607;42.066;24.742;2023-04-04T06:35:00;60.93;;;30.40;;
20894;SDS011;10607;42.066;24.742;2023-04-04T06:37:26;56.03;;;29.20;;
20894;SDS011;10607;42.066;24.742;2023-04-04T06:39:51;58.40;;;30.50;;
20894;SDS011;10607;42.066;24.742;2023-04-04T06:42:17;54.77;;;28.13;;
20894;SDS011;10607;42.066;24.742;2023-04-04T06:44:43;63.63;;;29.10;;
20894;SDS011;10607;42.066;24.742;2023-04-04T06:47:08;56.27;;;29.00;;
20894;SDS011;10607;42.066;24.742;2023-04-04T06:49:33;62.97;;;29.90;;
20894;SDS011;10607;42.066;24.742;2023-04-04T06:51:59;49.77;;;27.83;;
20894;SDS011;10607;42.066;24.742;2023-04-04T06:54:24;66.23;;;30.20;;
20894;SDS011;10607;42.066;24.742;2023-04-04T06:56:50;64.37;;;32.47;;
20894;SDS011;10607;42.066;24.742;2023-04-04T06:59:16;57.67;;;29.47;;
20894;SDS011;10607;42.066;24.742;2023-04-04T07:01:42;59.30;;;31.33;;
20894;SDS011;10607;42.066;24.742;2023-04-04T07:04:07;51.70;;;29.67;;
20894;SDS011;10607;42.066;24.742;2023-04-04T07:06:32;58.47;;;29.13;;
20894;SDS011;10607;42.066;24.742;2023-04-04T07:08:58;58.60;;;30.30;;
20894;SDS011;10607;42.066;24.742;2023-04-04T07:11:23;52.63;;;27.00;;
20894;SDS011;10607;42.066;24.742;2023-04-04T07:13:48;50.50;;;28.97;;
20894;SDS011;10607;42.066;24.742;2023-04-04T07:16:14;60.07;;;31.27;;
20894;SDS011;10607;42.066;24.742;2023-04-04T07:18:39;58.67;;;31.13;;
20894;SDS011;10607;42.066;24.742;2023-04-04T07:21:04;57.40;;;31.17;;
20894;SDS011;10607;42.066;24.742;2023-04-04T07:23:30;55.47;;;30.87;;
20894;SDS011;10607;42.066;24.742;2023-04-04T07:25:55;56.73;;;29.63;;
20894;SDS011;10607;42.066;24.742;2023-04-04T07:28:21;57.83;;;31.80;;
20894;SDS011;10607;42.066;24.742;2023-04-04T07:30:46;55.60;;;30.47;;
20894;SDS011;10607;42.066;24.742;2023-04-04T07:33:11;60.90;;;32.00;;
20894;SDS011;10607;42.066;24.742;2023-04-04T07:35:37;57.67;;;31.63;;
20894;SDS011;10607;42.066;24.742;2023-04-04T07:38:02;58.67;;;31.93;;
20894;SDS011;10607;42.066;24.742;2023-04-04T07:40:28;57.20;;;29.97;;
20894;SDS011;10607;42.066;24.742;2023-04-04T07:42:53;61.17;;;33.77;;
20894;SDS011;10607;42.066;24.742;2023-04-04T07:45:19;61.00;;;31.33;;
20894;SDS011;10607;42.066;24.742;2023-04-04T07:47:44;54.60;;;31.00;;
20894;SDS011;10607;42.066;24.742;2023-04-04T07:50:10;52.80;;;28.70;;
20894;SDS011;10607;42.066;24.742;2023-04-04T07:52:35;51.03;;;27.63;;
20894;SDS011;10607;42.066;24.742;2023-04-04T07:55:01;53.20;;;27.00;;
20894;SDS011;10607;42.066;24.742;2023-04-04T07:57:27;52.15;;;27.92;;
20894;SDS011;10607;42.066;24.742;2023-04-04T07:59:52;48.93;;;28.00;;
20894;SDS011;10607;42.066;24.742;2023-04-04T08:02:18;47.33;;;24.73;;
20894;SDS011;10607;42.066;24.742;2023-04-04T08:04:43;47.03;;;26.73;;
20894;SDS011;10607;42.066;24.742;2023-04-04T08:07:08;46.13;;;25.02;;
20894;SDS011;10607;42.066;24.742;2023-04-04T08:09:34;46.20;;;25.88;;
20894;SDS011;10607;42.066;24.742;2023-04-04T08:12:00;36.60;;;23.30;;
20894;SDS011;10607;42.066;24.742;2023-04-04T08:14:26;39.90;;;22.83;;
20894;SDS011;10607;42.066;24.742;2023-04-04T08:16:51;39.13;;;23.63;;
20894;SDS011;10607;42.066;24.742;2023-04-04T08:19:17;41.78;;;22.83;;
20894;SDS011;10607;42.066;24.742;2023-04-04T08:21:42;43.03;;;22.90;;
20894;SDS011;10607;42.066;24.742;2023-04-04T08:24:08;46.22;;;22.45;;
20894;SDS011;10607;42.066;24.742;2023-04-04T08:26:34;37.17;;;20.42;;
20894;SDS011;10607;42.066;24.742;2023-04-04T08:28:59;37.10;;;20.15;;
20894;SDS011;10607;42.066;24.742;2023-04-04T08:31:24;33.72;;;18.52;;
20894;SDS011;10607;42.066;24.742;2023-04-04T08:33:49;34.85;;;20.33;;
20894;SDS011;10607;42.066;24.742;2023-04-04T08:36:16;36.15;;;22.02;;
20894;SDS011;10607;42.066;24.742;2023-04-04T08:38:41;35.08;;;20.05;;
20894;SDS011;10607;42.066;24.742;2023-04-04T08:41:07;32.83;;;21.55;;
20894;SDS011;10607;42.066;24.742;2023-04-04T08:43:33;37.13;;;23.23;;
20894;SDS011;10607;42.066;24.742;2023-04-04T08:45:59;38.80;;;23.45;;
20894;SDS011;10607;42.066;24.742;2023-04-04T08:48:25;36.70;;;22.73;;
20894;SDS011;10607;42.066;24.742;2023-04-04T08:50:53;33.33;;;22.05;;
20894;SDS011;10607;42.066;24.742;2023-04-04T08:53:21;36.60;;;19.40;;
20894;SDS011;10607;42.066;24.742;2023-04-04T08:55:47;36.40;;;19.65;;
20894;SDS011;10607;42.066;24.742;2023-04-04T08:58:12;28.65;;;19.00;;
20894;SDS011;10607;42.066;24.742;2023-04-04T09:00:38;41.63;;;21.98;;
20894;SDS011;10607;42.066;24.742;2023-04-04T09:03:10;40.75;;;22.17;;
20894;SDS011;10607;42.066;24.742;2023-04-04T09:05:38;36.83;;;19.70;;
20894;SDS011;10607;42.066;24.742;2023-04-04T09:08:04;37.88;;;21.00;;
20894;SDS011;10607;42.066;24.742;2023-04-04T09:10:31;36.42;;;19.73;;
20894;SDS011;10607;42.066;24.742;2023-04-04T09:12:56;34.63;;;21.58;;
20894;SDS011;10607;42.066;24.742;2023-04-04T09:15:22;37.17;;;22.25;;
20894;SDS011;10607;42.066;24.742;2023-04-04T09:17:47;42.10;;;22.48;;
20894;SDS011;10607;42.066;24.742;2023-04-04T09:22:57;31.55;;;20.23;;
20894;SDS011;10607;42.066;24.742;2023-04-04T09:25:22;36.40;;;18.70;;
20894;SDS011;10607;42.066;24.742;2023-04-04T09:27:47;33.25;;;20.48;;
20894;SDS011;10607;42.066;24.742;2023-04-04T09:30:14;42.25;;;21.50;;
20894;SDS011;10607;42.066;24.742;2023-04-04T09:32:39;29.80;;;18.60;;
20894;SDS011;10607;42.066;24.742;2023-04-04T09:35:05;32.15;;;19.48;;
20894;SDS011;10607;42.066;24.742;2023-04-04T09:37:30;32.22;;;18.50;;
20894;SDS011;10607;42.066;24.742;2023-04-04T09:39:56;35.22;;;19.60;;
20894;SDS011;10607;42.066;24.742;2023-04-04T09:42:21;31.30;;;18.98;;
20894;SDS011;10607;42.066;24.742;2023-04-04T09:44:48;26.83;;;18.48;;
20894;SDS011;10607;42.066;24.742;2023-04-04T09:47:27;33.72;;;19.38;;
20894;SDS011;10607;42.066;24.742;2023-04-04T09:49:53;30.65;;;18.67;;
20894;SDS011;10607;42.066;24.742;2023-04-04T09:52:21;29.55;;;17.90;;
20894;SDS011;10607;42.066;24.742;2023-04-04T09:54:53;29.55;;;18.48;;
20894;SDS011;10607;42.066;24.742;2023-04-04T09:57:19;29.98;;;17.70;;
20894;SDS011;10607;42.066;24.742;2023-04-04T09:59:44;28.30;;;17.88;;
20894;SDS011;10607;42.066;24.742;2023-04-04T10:02:10;34.13;;;17.73;;
20894;SDS011;10607;42.066;24.742;2023-04-04T10:04:36;28.77;;;18.02;;
20894;SDS011;10607;42.066;24.742;2023-04-04T10:07:01;30.98;;;18.58;;
20894;SDS011;10607;42.066;24.742;2023-04-04T10:09:27;29.35;;;19.63;;
20894;SDS011;10607;42.066;24.742;2023-04-04T10:11:54;31.08;;;19.65;;
20894;SDS011;10607;42.066;24.742;2023-04-04T10:14:33;27.58;;;18.33;;
20894;SDS011;10607;42.066;24.742;2023-04-04T10:16:58;34.25;;;19.27;;
20894;SDS011;10607;42.066;24.742;2023-04-04T10:19:25;29.52;;;19.58;;
20894;SDS011;10607;42.066;24.742;2023-04-04T10:21:50;22.00;;;16.48;;
20894;SDS011;10607;42.066;24.742;2023-04-04T10:24:16;30.73;;;20.58;;
20894;SDS011;10607;42.066;24.742;2023-04-04T10:26:43;31.08;;;20.15;;
20894;SDS011;10607;42.066;24.742;2023-04-04T10:29:08;26.30;;;19.48;;
20894;SDS011;10607;42.066;24.742;2023-04-04T10:31:35;26.20;;;19.38;;
20894;SDS011;10607;42.066;24.742;2023-04-04T10:39:25;33.40;;;22.67;;
20894;SDS011;10607;42.066;24.742;2023-04-04T10:41:51;36.15;;;20.88;;
20894;SDS011;10607;42.066;24.742;2023-04-04T10:44:30;35.63;;;21.95;;
20894;SDS011;10607;42.066;24.742;2023-04-04T10:46:58;31.85;;;20.63;;
20894;SDS011;10607;42.066;24.742;2023-04-04T10:49:27;32.53;;;20.77;;
20894;SDS011;10607;42.066;24.742;2023-04-04T10:51:53;31.73;;;21.10;;
20894;SDS011;10607;42.066;24.742;2023-04-04T10:54:20;30.67;;;20.27;;
20894;SDS011;10607;42.066;24.742;2023-04-04T10:56:45;25.67;;;19.38;;
20894;SDS011;10607;42.066;24.742;2023-04-04T10:59:12;29.63;;;19.45;;
20894;SDS011;10607;42.066;24.742;2023-04-04T11:01:47;31.23;;;18.17;;
20894;SDS011;10607;42.066;24.742;2023-04-04T11:07:15;32.53;;;20.08;;
20894;SDS011;10607;42.066;24.742;2023-04-04T11:09:46;37.10;;;18.13;;
20894;SDS011;10607;42.066;24.742;2023-04-04T11:12:12;23.27;;;16.50;;
20894;SDS011;10607;42.066;24.742;2023-04-04T11:20:07;28.35;;;16.90;;
20894;SDS011;10607;42.066;24.742;2023-04-04T11:22:34;25.00;;;16.90;;
20894;SDS011;10607;42.066;24.742;2023-04-04T11:25:14;26.00;;;16.55;;
20894;SDS011;10607;42.066;24.742;2023-04-04T11:27:45;22.58;;;15.40;;
20894;SDS011;10607;42.066;24.742;2023-04-04T11:30:13;24.92;;;16.70;;
20894;SDS011;10607;42.066;24.742;2023-04-04T11:32:43;23.63;;;17.35;;
20894;SDS011;10607;42.066;24.742;2023-04-04T11:35:11;30.73;;;17.83;;
20894;SDS011;10607;42.066;24.742;2023-04-04T11:38:10;27.70;;;18.35;;
20894;SDS011;10607;42.066;24.742;2023-04-04T11:40:38;30.77;;;17.02;;
20894;SDS011;10607;42.066;24.742;2023-04-04T11:43:10;23.85;;;17.70;;
20894;SDS011;10607;42.066;24.742;2023-04-04T11:45:36;27.48;;;17.75;;
20894;SDS011;10607;42.066;24.742;2023-04-04T11:48:03;25.83;;;17.05;;
20894;SDS011;10607;42.066;24.742;2023-04-04T11:50:39;27.73;;;16.42;;
20894;SDS011;10607;42.066;24.742;2023-04-04T11:53:08;25.52;;;16.02;;
20894;SDS011;10607;42.066;24.742;2023-04-04T11:55:37;26.73;;;17.77;;
20894;SDS011;10607;42.066;24.742;2023-04-04T11:58:09;24.35;;;15.70;;
20894;SDS011;10607;42.066;24.742;2023-04-04T12:00:35;25.50;;;15.98;;
20894;SDS011;10607;42.066;24.742;2023-04-04T12:03:03;25.63;;;17.23;;
20894;SDS011;10607;42.066;24.742;2023-04-04T12:05:29;28.85;;;16.13;;
20894;SDS011;10607;42.066;24.742;2023-04-04T12:07:55;25.83;;;17.58;;
20894;SDS011;10607;42.066;24.742;2023-04-04T12:10:20;27.40;;;17.75;;
20894;SDS011;10607;42.066;24.742;2023-04-04T12:12:46;29.40;;;17.98;;
20894;SDS011;10607;42.066;24.742;2023-04-04T12:15:14;27.42;;;16.10;;
20894;SDS011;10607;42.066;24.742;2023-04-04T12:17:41;30.83;;;16.77;;
20894;SDS011;10607;42.066;24.742;2023-04-04T12:20:12;29.15;;;16.45;;
20894;SDS011;10607;42.066;24.742;2023-04-04T12:22:39;26.63;;;14.82;;
20894;SDS011;10607;42.066;24.742;2023-04-04T12:25:04;24.52;;;15.45;;
20894;SDS011;10607;42.066;24.742;2023-04-04T12:27:30;21.27;;;13.70;;
20894;SDS011;10607;42.066;24.742;2023-04-04T12:29:55;18.95;;;13.63;;
20894;SDS011;10607;42.066;24.742;2023-04-04T12:32:22;26.25;;;15.48;;
20894;SDS011;10607;42.066;24.742;2023-04-04T12:34:47;19.70;;;13.40;;
20894;SDS011;10607;42.066;24.742;2023-04-04T12:37:12;18.00;;;11.77;;
20894;SDS011;10607;42.066;24.742;2023-04-04T12:39:45;13.82;;;9.75;;
20894;SDS011;10607;42.066;24.742;2023-04-04T12:42:12;9.88;;;7.40;;
20894;SDS011;10607;42.066;24.742;2023-04-04T12:44:38;19.52;;;7.20;;
20894;SDS011;10607;42.066;24.742;2023-04-04T12:47:07;8.75;;;6.40;;
20894;SDS011;10607;42.066;24.742;2023-04-04T12:49:39;10.38;;;6.28;;
20894;SDS011;10607;42.066;24.742;2023-04-04T12:52:05;11.50;;;6.32;;
20894;SDS011;10607;42.066;24.742;2023-04-04T12:54:35;9.70;;;6.07;;
20894;SDS011;10607;42.066;24.742;2023-04-04T12:57:02;12.73;;;7.25;;
20894;SDS011;10607;42.066;24.742;2023-04-04T12:59:32;7.00;;;5.78;;
20894;SDS011;10607;42.066;24.742;2023-04-04T13:01:59;11.10;;;5.85;;
20894;SDS011;10607;42.066;24.742;2023-04-04T13:04:24;16.25;;;6.15;;
20894;SDS011;10607;42.066;24.742;2023-04-04T13:06:50;17.65;;;12.30;;
20894;SDS011;10607;42.066;24.742;2023-04-04T13:09:16;13.30;;;6.65;;
20894;SDS011;10607;42.066;24.742;2023-04-04T13:12:01;8.63;;;5.88;;
20894;SDS011;10607;42.066;24.742;2023-04-04T13:15:12;11.30;;;5.30;;
20894;SDS011;10607;42.066;24.742;2023-04-04T13:17:12;6.72;;;5.55;;
20894;SDS011;10607;42.066;24.742;2023-04-04T13:19:38;7.70;;;5.03;;
20894;SDS011;10607;42.066;24.742;2023-04-04T13:22:06;7.53;;;5.32;;
20894;SDS011;10607;42.066;24.742;2023-04-04T13:24:32;8.13;;;5.07;;
20894;SDS011;10607;42.066;24.742;2023-04-04T13:26:57;7.72;;;4.97;;
20894;SDS011;10607;42.066;24.742;2023-04-04T13:29:22;7.63;;;4.45;;
20894;SDS011;10607;42.066;24.742;2023-04-04T13:31:49;6.25;;;4.20;;
20894;SDS011;10607;42.066;24.742;2023-04-04T13:34:14;5.95;;;3.63;;
20894;SDS011;10607;42.066;24.742;2023-04-04T13:36:40;5.28;;;3.50;;
20894;SDS011;10607;42.066;24.742;2023-04-04T13:39:05;3.23;;;2.70;;
20894;SDS011;10607;42.066;24.742;2023-04-04T13:41:30;2.67;;;2.25;;
20894;SDS011;10607;42.066;24.742;2023-04-04T13:43:56;2.40;;;2.15;;
20894;SDS011;10607;42.066;24.742;2023-04-04T13:46:21;4.57;;;2.40;;
20894;SDS011;10607;42.066;24.742;2023-04-04T13:48:46;2.77;;;2.43;;
20894;SDS011;10607;42.066;24.742;2023-04-04T13:51:12;4.70;;;2.37;;
20894;SDS011;10607;42.066;24.742;2023-04-04T13:53:37;3.60;;;2.10;;
20894;SDS011;10607;42.066;24.742;2023-04-04T13:56:02;2.30;;;2.10;;
20894;SDS011;10607;42.066;24.742;2023-04-04T13:58:27;2.40;;;1.93;;
20894;SDS011;10607;42.066;24.742;2023-04-04T14:00:53;4.53;;;2.43;;
20894;SDS011;10607;42.066;24.742;2023-04-04T14:03:18;3.40;;;2.03;;
20894;SDS011;10607;42.066;24.742;2023-04-04T14:05:43;3.70;;;2.30;;
20894;SDS011;10607;42.066;24.742;2023-04-04T14:08:09;3.63;;;2.47;;
20894;SDS011;10607;42.066;24.742;2023-04-04T14:10:34;3.90;;;1.97;;
20894;SDS011;10607;42.066;24.742;2023-04-04T14:12:59;4.63;;;1.90;;
20894;SDS011;10607;42.066;24.742;2023-04-04T14:15:25;1.87;;;1.67;;
20894;SDS011;10607;42.066;24.742;2023-04-04T14:17:50;1.70;;;1.60;;
20894;SDS011;10607;42.066;24.742;2023-04-04T14:20:16;1.87;;;1.63;;
20894;SDS011;10607;42.066;24.742;2023-04-04T14:22:41;3.40;;;1.40;;
20894;SDS011;10607;42.066;24.742;2023-04-04T14:25:06;1.50;;;1.40;;